createdAt,value
2023-03-29T00:02:11.258Z,50.93
2023-03-29T00:04:39.045Z,50.57
2023-03-29T00:07:05.954Z,51.59
2023-03-29T00:09:33.299Z,50.95
2023-03-29T00:12:01.748Z,50.31
2023-03-29T00:14:30.811Z,51.00
2023-03-29T00:16:58.537Z,50.45
2023-03-29T00:19:25.224Z,50.43
2023-03-29T00:21:52.009Z,50.67
2023-03-29T00:24:18.621Z,50.91
2023-03-29T00:26:45.507Z,50.64
2023-03-29T00:29:12.535Z,51.01
2023-03-29T00:31:39.620Z,50.86
2023-03-29T00:34:06.402Z,50.54
2023-03-29T00:36:33.077Z,50.79
2023-03-29T00:38:59.916Z,50.25
2023-03-29T00:41:27.442Z,50.33
2023-03-29T00:44:02.805Z,50.09
2023-03-29T00:46:30.947Z,50.02
2023-03-29T00:49:04.587Z,50.01
2023-03-29T00:51:35.710Z,50.07
2023-03-29T00:54:05.983Z,51.20
2023-03-29T00:56:39.821Z,52.37
2023-03-29T00:59:12.292Z,51.51
2023-03-29T01:01:44.952Z,50.35
2023-03-29T01:04:20.778Z,50.96
2023-03-29T01:07:13.608Z,50.05
2023-03-29T01:09:44.510Z,50.57
2023-03-29T01:12:17.143Z,50.37
2023-03-29T01:15:04.316Z,50.13
2023-03-29T01:17:31.896Z,50.19
2023-03-29T01:20:22.222Z,51.04
2023-03-29T01:23:27.310Z,50.55
2023-03-29T01:26:25.004Z,50.31
2023-03-29T01:28:55.062Z,50.26
2023-03-29T01:31:30.061Z,49.60
2023-03-29T01:34:32.512Z,50.07
2023-03-29T01:37:08.678Z,50.52
2023-03-29T01:39:35.817Z,50.17
2023-03-29T01:42:21.508Z,50.26
2023-03-29T01:45:06.710Z,50.98
2023-03-29T01:47:48.594Z,50.75
2023-03-29T01:50:25.610Z,51.08
2023-03-29T01:53:07.558Z,51.23
2023-03-29T01:55:39.300Z,50.75
2023-03-29T01:58:10.231Z,51.57
2023-03-29T02:00:39.991Z,51.14
2023-03-29T02:03:10.123Z,51.08
2023-03-29T02:05:39.465Z,50.83
2023-03-29T02:08:08.779Z,50.42
2023-03-29T02:10:36.834Z,50.27
2023-03-29T02:13:04.672Z,50.47
2023-03-29T02:15:33.223Z,49.88
2023-03-29T02:17:59.992Z,49.61
2023-03-29T02:20:32.220Z,50.07
2023-03-29T02:23:06.417Z,49.90
2023-03-29T02:25:33.588Z,49.74
2023-03-29T02:28:01.209Z,49.29
2023-03-29T02:30:49.673Z,48.92
2023-03-29T02:33:24.074Z,49.08
2023-03-29T02:36:03.282Z,49.05
2023-03-29T02:38:32.836Z,48.59
2023-03-29T02:41:00.572Z,48.72
2023-03-29T02:43:29.934Z,48.78
2023-03-29T02:45:56.993Z,48.82
2023-03-29T02:48:27.131Z,48.53
2023-03-29T02:50:58.038Z,47.80
2023-03-29T02:53:30.696Z,48.50
2023-03-29T02:55:57.811Z,48.01
2023-03-29T02:58:26.653Z,48.30
2023-03-29T03:00:53.858Z,48.11
2023-03-29T03:03:21.061Z,47.87
2023-03-29T03:05:49.371Z,48.71
2023-03-29T03:08:16.461Z,48.75
2023-03-29T03:10:43.147Z,49.16
2023-03-29T03:13:10.006Z,48.57
2023-03-29T03:15:37.246Z,48.53
2023-03-29T03:18:04.813Z,48.84
2023-03-29T03:20:32.386Z,48.89
2023-03-29T03:23:01.094Z,49.21
2023-03-29T03:25:28.723Z,48.15
2023-03-29T03:27:55.661Z,48.53
2023-03-29T03:30:24.465Z,48.66
2023-03-29T03:33:10.094Z,47.98
2023-03-29T03:35:42.867Z,48.50
2023-03-29T03:38:12.342Z,48.27
2023-03-29T03:40:40.181Z,48.29
2023-03-29T03:43:07.132Z,47.86
2023-03-29T03:45:34.542Z,48.26
2023-03-29T03:48:11.651Z,48.43
2023-03-29T03:50:51.258Z,48.04
2023-03-29T03:53:19.257Z,47.91
2023-03-29T03:56:09.089Z,47.92
2023-03-29T03:58:47.568Z,47.97
2023-03-29T04:01:17.371Z,48.04
2023-03-29T04:03:54.162Z,48.48
2023-03-29T04:06:22.648Z,48.87
2023-03-29T04:09:23.394Z,47.80
2023-03-29T04:12:02.545Z,48.11
2023-03-29T04:14:32.223Z,47.72
2023-03-29T04:17:06.848Z,46.84
2023-03-29T04:20:12.385Z,46.44
2023-03-29T04:22:41.178Z,46.87
2023-03-29T04:25:08.710Z,47.65
2023-03-29T04:27:47.955Z,46.61
2023-03-29T04:30:29.228Z,46.96
2023-03-29T04:33:08.860Z,47.53
2023-03-29T04:35:37.131Z,47.87
2023-03-29T04:38:10.493Z,47.54
2023-03-29T04:40:38.608Z,47.97
2023-03-29T04:43:12.242Z,47.62
2023-03-29T04:45:46.300Z,47.22
2023-03-29T04:48:25.790Z,46.80
2023-03-29T04:50:54.483Z,48.42
2023-03-29T04:53:22.732Z,47.74
2023-03-29T04:55:50.508Z,47.69
2023-03-29T04:58:32.523Z,47.48
2023-03-29T05:01:00.965Z,47.34
2023-03-29T05:03:38.162Z,46.44
2023-03-29T05:06:14.152Z,48.37
2023-03-29T05:08:41.285Z,47.96
2023-03-29T05:11:25.180Z,47.64
2023-03-29T05:13:52.492Z,48.35
2023-03-29T05:16:19.354Z,46.74
2023-03-29T05:18:46.816Z,46.47
2023-03-29T05:21:14.172Z,46.54
2023-03-29T05:23:47.067Z,46.76
2023-03-29T05:26:16.248Z,46.27
2023-03-29T05:28:51.515Z,46.57
2023-03-29T05:31:18.791Z,46.35
2023-03-29T05:33:50.376Z,45.54
2023-03-29T05:36:19.318Z,45.38
2023-03-29T05:38:49.920Z,45.82
2023-03-29T05:41:18.619Z,45.74
2023-03-29T05:44:14.208Z,46.70
2023-03-29T05:46:43.071Z,46.09
2023-03-29T05:49:14.574Z,45.84
2023-03-29T05:52:02.465Z,46.09
2023-03-29T05:54:31.218Z,46.34
2023-03-29T05:56:58.428Z,45.75
2023-03-29T05:59:28.328Z,45.26
2023-03-29T06:01:54.983Z,46.14
2023-03-29T06:04:21.977Z,45.59
2023-03-29T06:07:02.009Z,44.49
2023-03-29T06:09:29.146Z,45.12
2023-03-29T06:12:01.838Z,45.42
2023-03-29T06:14:34.618Z,45.21
2023-03-29T06:17:13.779Z,46.09
2023-03-29T06:19:40.687Z,45.27
2023-03-29T06:22:07.531Z,45.44
2023-03-29T06:24:34.807Z,45.50
2023-03-29T06:27:08.218Z,44.72
2023-03-29T06:29:36.318Z,44.68
2023-03-29T06:32:03.338Z,43.53
2023-03-29T06:34:46.162Z,43.95
2023-03-29T06:37:34.479Z,43.42
2023-03-29T06:40:11.633Z,44.26
2023-03-29T06:42:42.926Z,43.35
2023-03-29T06:45:31.036Z,44.18
2023-03-29T06:48:00.585Z,42.93
2023-03-29T06:50:27.512Z,42.77
2023-03-29T06:53:04.712Z,43.91
2023-03-29T06:55:32.166Z,43.40
2023-03-29T06:58:09.304Z,44.27
2023-03-29T07:00:38.990Z,44.50
2023-03-29T07:03:15.017Z,43.92
2023-03-29T07:05:42.078Z,43.06
2023-03-29T07:08:15.609Z,43.73
2023-03-29T07:11:03.731Z,43.61
2023-03-29T07:13:49.285Z,44.09
2023-03-29T07:16:19.592Z,43.36
2023-03-29T07:19:09.469Z,44.45
2023-03-29T07:22:07.414Z,44.52
2023-03-29T07:24:44.507Z,44.20
2023-03-29T07:27:12.305Z,45.12
2023-03-29T07:29:39.275Z,45.36
2023-03-29T07:32:06.536Z,44.92
2023-03-29T07:34:42.182Z,45.69
2023-03-29T07:37:13.837Z,44.53
2023-03-29T07:39:42.592Z,43.99
2023-03-29T07:42:28.259Z,43.32
2023-03-29T07:44:56.234Z,44.29
2023-03-29T07:47:23.609Z,42.95
2023-03-29T07:49:50.486Z,42.92
2023-03-29T07:52:18.100Z,42.94
2023-03-29T07:54:45.323Z,43.13
2023-03-29T07:57:26.549Z,42.96
2023-03-29T07:59:55.442Z,42.97
2023-03-29T08:02:27.337Z,43.35
2023-03-29T08:04:57.721Z,43.25
2023-03-29T08:07:31.312Z,43.44
2023-03-29T08:10:19.520Z,44.11
2023-03-29T08:13:24.876Z,44.07
2023-03-29T08:16:12.138Z,45.19
2023-03-29T08:18:45.187Z,43.59
2023-03-29T08:21:14.739Z,43.16
2023-03-29T08:23:45.009Z,43.16
2023-03-29T08:26:19.650Z,42.59
2023-03-29T08:28:47.670Z,41.50
2023-03-29T08:31:16.582Z,42.31
2023-03-29T08:33:44.844Z,42.99
2023-03-29T08:36:37.807Z,43.66
2023-03-29T08:39:11.586Z,42.97
2023-03-29T08:42:03.907Z,42.96
2023-03-29T08:44:59.286Z,42.77
2023-03-29T08:48:04.019Z,43.85
2023-03-29T08:50:40.550Z,43.83
2023-03-29T08:53:12.865Z,43.23
2023-03-29T08:56:06.874Z,43.49
2023-03-29T08:58:56.318Z,44.91
2023-03-29T09:01:30.692Z,44.97
2023-03-29T09:04:04.893Z,45.36
2023-03-29T09:06:47.554Z,44.08
2023-03-29T09:09:23.584Z,45.37
2023-03-29T09:12:33.639Z,47.55
2023-03-29T09:15:15.559Z,48.01
2023-03-29T09:18:21.872Z,48.45
2023-03-29T09:21:20.463Z,47.97
2023-03-29T09:24:02.948Z,47.54
2023-03-29T09:27:32.344Z,48.79
2023-03-29T09:30:27.990Z,48.59
2023-03-29T09:33:12.770Z,49.71
2023-03-29T09:36:22.934Z,49.06
2023-03-29T09:38:54.399Z,48.63
2023-03-29T09:41:35.844Z,48.95
2023-03-29T09:44:20.553Z,48.54
2023-03-29T09:47:01.934Z,47.29
2023-03-29T09:49:36.367Z,46.47
2023-03-29T09:52:10.797Z,46.24
2023-03-29T09:54:38.205Z,46.99
2023-03-29T09:57:36.489Z,48.13
2023-03-29T10:00:06.595Z,46.34
2023-03-29T10:02:57.126Z,46.03
2023-03-29T10:05:40.132Z,46.16
2023-03-29T10:08:36.621Z,46.86
2023-03-29T10:11:12.413Z,47.21
2023-03-29T10:13:47.199Z,48.12
2023-03-29T10:16:22.446Z,49.83
2023-03-29T10:18:50.294Z,49.19
2023-03-29T10:21:22.356Z,48.67
2023-03-29T10:23:50.208Z,46.29
2023-03-29T10:26:31.817Z,46.58
2023-03-29T10:29:01.525Z,43.99
2023-03-29T10:31:31.497Z,44.17
2023-03-29T10:34:02.767Z,42.20
2023-03-29T10:36:30.071Z,45.43
2023-03-29T10:39:05.904Z,46.57
2023-03-29T10:41:35.613Z,48.34
2023-03-29T10:44:03.669Z,47.05
2023-03-29T10:46:41.999Z,46.46
2023-03-29T10:49:20.332Z,46.12
2023-03-29T10:51:51.931Z,46.76
2023-03-29T10:54:22.557Z,47.30
2023-03-29T10:56:53.708Z,46.75
2023-03-29T10:59:47.776Z,45.27
2023-03-29T11:02:47.277Z,44.73
2023-03-29T11:05:24.905Z,45.26
2023-03-29T11:08:10.293Z,45.28
2023-03-29T11:10:58.847Z,45.36
2023-03-29T11:13:59.940Z,45.61
2023-03-29T11:16:53.645Z,45.26
2023-03-29T11:19:38.321Z,44.97
2023-03-29T11:22:11.398Z,43.77
2023-03-29T11:24:41.451Z,44.32
2023-03-29T11:27:43.059Z,42.98
2023-03-29T11:30:30.609Z,43.41
2023-03-29T11:33:25.520Z,43.75
2023-03-29T11:36:16.849Z,43.45
2023-03-29T11:38:55.692Z,42.85
2023-03-29T11:41:32.196Z,43.96
2023-03-29T11:44:03.081Z,44.18
2023-03-29T11:46:38.627Z,43.91
2023-03-29T11:49:13.952Z,44.72
2023-03-29T11:51:46.120Z,44.85
2023-03-29T11:54:31.207Z,44.48
2023-03-29T11:57:13.165Z,44.63
2023-03-29T11:59:49.973Z,44.66
2023-03-29T12:02:39.958Z,44.04
2023-03-29T12:05:15.974Z,44.53
2023-03-29T12:07:49.893Z,44.01
2023-03-29T12:10:23.608Z,43.40
2023-03-29T12:12:56.430Z,43.02
2023-03-29T12:15:26.300Z,42.37
2023-03-29T12:18:06.336Z,42.25
2023-03-29T12:20:38.985Z,43.19
2023-03-29T12:23:10.904Z,42.60
2023-03-29T12:25:49.484Z,42.64
2023-03-29T12:28:23.471Z,43.53
2023-03-29T12:31:00.648Z,42.41
2023-03-29T12:34:03.337Z,41.84
2023-03-29T12:37:13.368Z,39.76
2023-03-29T12:39:46.962Z,41.15
2023-03-29T12:42:44.563Z,41.71
2023-03-29T12:45:49.330Z,42.79
2023-03-29T12:48:20.262Z,42.28
2023-03-29T12:50:57.270Z,41.31
2023-03-29T12:53:27.045Z,41.13
2023-03-29T12:56:01.059Z,40.82
2023-03-29T12:58:40.234Z,40.88
2023-03-29T13:01:10.916Z,40.82
2023-03-29T13:03:40.840Z,40.98
2023-03-29T13:06:10.066Z,40.46
2023-03-29T13:08:41.059Z,40.37
2023-03-29T13:11:13.511Z,41.54
2023-03-29T13:13:41.762Z,41.41
2023-03-29T13:16:21.611Z,42.02
2023-03-29T13:18:48.572Z,41.85
2023-03-29T13:21:44.859Z,41.80
2023-03-29T13:24:31.292Z,42.25
2023-03-29T13:27:42.308Z,41.41
2023-03-29T13:30:20.115Z,41.82
2023-03-29T13:33:14.645Z,40.69
2023-03-29T13:35:59.950Z,41.43
2023-03-29T13:38:31.672Z,41.58
2023-03-29T13:41:05.554Z,41.49
2023-03-29T13:43:44.600Z,41.52
2023-03-29T13:46:43.491Z,42.08
2023-03-29T13:49:21.182Z,41.14
2023-03-29T13:52:02.856Z,41.22
2023-03-29T13:54:35.694Z,41.17
2023-03-29T13:57:08.926Z,42.17
2023-03-29T13:59:50.633Z,41.49
2023-03-29T14:02:50.822Z,41.69
2023-03-29T14:05:21.638Z,42.58
2023-03-29T14:07:52.801Z,43.09
2023-03-29T14:10:26.909Z,44.30
2023-03-29T14:12:55.932Z,43.48
2023-03-29T14:15:26.615Z,44.40
2023-03-29T14:18:00.809Z,43.22
2023-03-29T14:20:28.004Z,43.68
2023-03-29T14:22:54.807Z,42.57
2023-03-29T14:25:23.272Z,42.36
2023-03-29T14:27:49.997Z,42.37
2023-03-29T14:30:20.253Z,42.91
2023-03-29T14:32:48.897Z,43.04
2023-03-29T14:35:15.684Z,42.07
2023-03-29T14:37:42.911Z,42.31
2023-03-29T14:40:21.144Z,42.35
2023-03-29T14:42:48.804Z,41.24
2023-03-29T14:45:18.509Z,41.29
2023-03-29T14:47:47.237Z,41.12
2023-03-29T14:50:27.078Z,41.76
2023-03-29T14:52:54.520Z,40.97
2023-03-29T14:55:23.900Z,40.82
2023-03-29T14:57:54.275Z,40.90
2023-03-29T15:00:30.097Z,40.94
2023-03-29T15:03:02.400Z,39.90
2023-03-29T15:05:54.415Z,39.76
2023-03-29T15:08:32.322Z,41.00
2023-03-29T15:10:59.597Z,41.53
2023-03-29T15:13:28.336Z,41.17
2023-03-29T15:16:03.325Z,41.41
2023-03-29T15:18:41.611Z,41.71
2023-03-29T15:21:10.651Z,42.82
2023-03-29T15:23:41.673Z,43.15
2023-03-29T15:26:14.026Z,42.36
2023-03-29T15:28:55.832Z,43.36
2023-03-29T15:31:32.403Z,43.41
2023-03-29T15:34:06.311Z,43.75
2023-03-29T15:36:40.503Z,43.26
2023-03-29T15:39:14.272Z,43.36
2023-03-29T15:41:42.227Z,43.71
2023-03-29T15:44:10.539Z,43.12
2023-03-29T15:46:37.653Z,43.74
2023-03-29T15:49:05.233Z,43.77
2023-03-29T15:51:32.070Z,43.74
2023-03-29T15:53:58.895Z,44.48
2023-03-29T15:56:26.686Z,44.55
2023-03-29T15:58:53.259Z,44.47
2023-03-29T16:01:46.825Z,43.99
2023-03-29T16:04:17.402Z,43.36
2023-03-29T16:06:47.468Z,43.79
2023-03-29T16:09:15.240Z,43.89
2023-03-29T16:11:43.486Z,44.19
2023-03-29T16:14:24.796Z,43.91
2023-03-29T16:16:52.306Z,43.38
2023-03-29T16:19:19.463Z,44.01
2023-03-29T16:21:46.274Z,43.52
2023-03-29T16:24:21.896Z,44.38
2023-03-29T16:26:49.428Z,45.37
2023-03-29T16:29:17.333Z,45.89
2023-03-29T16:31:44.990Z,45.67
2023-03-29T16:34:13.837Z,44.96
2023-03-29T16:36:41.029Z,44.62
2023-03-29T16:39:07.959Z,44.18
2023-03-29T16:41:35.186Z,44.00
2023-03-29T16:44:01.941Z,44.26
2023-03-29T16:46:29.137Z,44.18
2023-03-29T16:48:57.913Z,44.93
2023-03-29T16:51:26.039Z,45.12
2023-03-29T16:53:52.709Z,44.98
2023-03-29T16:56:20.558Z,45.74
2023-03-29T16:58:47.509Z,45.63
2023-03-29T17:01:16.668Z,45.65
2023-03-29T17:03:44.083Z,46.31
2023-03-29T17:06:12.053Z,45.81
2023-03-29T17:08:39.629Z,46.44
2023-03-29T17:11:07.206Z,47.24
2023-03-29T17:13:34.076Z,48.02
2023-03-29T17:16:01.346Z,47.05
2023-03-29T17:18:28.409Z,47.90
2023-03-29T17:20:59.296Z,47.28
2023-03-29T17:23:26.268Z,46.82
2023-03-29T17:25:54.990Z,46.46
2023-03-29T17:28:24.088Z,46.71
2023-03-29T17:30:51.307Z,46.53
2023-03-29T17:33:22.803Z,47.19
2023-03-29T17:35:50.279Z,47.29
2023-03-29T17:38:18.703Z,48.06
2023-03-29T17:40:52.329Z,49.78
2023-03-29T17:43:18.837Z,49.97
2023-03-29T17:45:46.207Z,49.34
2023-03-29T17:48:13.284Z,49.31
2023-03-29T17:50:39.899Z,48.31
2023-03-29T17:53:07.257Z,48.35
2023-03-29T17:55:33.927Z,49.13
2023-03-29T17:58:00.716Z,48.03
2023-03-29T18:00:27.783Z,49.50
2023-03-29T18:02:54.607Z,49.85
2023-03-29T18:05:21.774Z,49.49
2023-03-29T18:07:48.366Z,49.80
2023-03-29T18:10:15.848Z,50.57
2023-03-29T18:12:42.487Z,51.13
2023-03-29T18:15:09.716Z,52.42
2023-03-29T18:17:37.189Z,51.96
2023-03-29T18:20:11.505Z,51.50
2023-03-29T18:22:39.738Z,49.80
2023-03-29T18:25:07.457Z,51.16
2023-03-29T18:27:36.432Z,51.27
2023-03-29T18:30:03.316Z,51.57
2023-03-29T18:32:30.100Z,50.93
2023-03-29T18:34:56.741Z,50.09
2023-03-29T18:37:23.593Z,49.81
2023-03-29T18:39:50.204Z,48.99
2023-03-29T18:42:17.328Z,50.08
2023-03-29T18:44:43.836Z,48.65
2023-03-29T18:47:10.627Z,51.00
2023-03-29T18:49:37.151Z,49.32
2023-03-29T18:52:04.874Z,51.89
2023-03-29T18:54:31.809Z,51.90
2023-03-29T18:56:59.354Z,51.18
2023-03-29T18:59:26.608Z,51.65
2023-03-29T19:01:53.284Z,51.75
2023-03-29T19:04:20.049Z,50.98
2023-03-29T19:06:47.390Z,50.63
2023-03-29T19:09:14.030Z,51.12
2023-03-29T19:11:40.917Z,50.50
2023-03-29T19:14:09.163Z,50.84
2023-03-29T19:16:36.093Z,50.57
2023-03-29T19:19:02.756Z,52.85
2023-03-29T19:21:31.837Z,51.15
2023-03-29T19:24:00.701Z,51.48
2023-03-29T19:26:33.324Z,51.32
2023-03-29T19:29:00.979Z,51.46
2023-03-29T19:31:27.828Z,52.42
2023-03-29T19:33:55.286Z,53.23
2023-03-29T19:36:22.206Z,52.50
2023-03-29T19:38:49.063Z,51.97
2023-03-29T19:41:15.890Z,51.21
2023-03-29T19:43:42.541Z,52.81
2023-03-29T19:46:11.778Z,53.15
2023-03-29T19:48:40.111Z,53.64
2023-03-29T19:51:07.917Z,52.74
2023-03-29T19:53:38.495Z,54.10
2023-03-29T19:56:07.604Z,52.99
2023-03-29T19:58:35.650Z,52.84
2023-03-29T20:03:29.707Z,51.61
2023-03-29T20:05:56.840Z,54.60
2023-03-29T20:08:24.756Z,53.50
2023-03-29T20:11:04.039Z,53.17
2023-03-29T20:16:16.339Z,53.46
2023-03-29T20:18:46.877Z,53.61
2023-03-29T20:21:16.266Z,52.99
2023-03-29T20:23:43.409Z,52.18
2023-03-29T20:26:10.539Z,52.41
2023-03-29T20:28:40.109Z,52.84
2023-03-29T20:31:10.797Z,52.42
2023-03-29T20:33:37.996Z,53.00
2023-03-29T20:36:05.757Z,51.93
2023-03-29T20:38:33.216Z,51.19
2023-03-29T20:41:00.118Z,52.48
2023-03-29T20:43:26.979Z,52.27
2023-03-29T20:45:54.489Z,51.56
2023-03-29T20:48:30.251Z,51.16
2023-03-29T20:50:57.802Z,51.56
2023-03-29T20:53:25.743Z,52.29
2023-03-29T20:55:52.620Z,52.51
2023-03-29T20:58:19.242Z,52.38
2023-03-29T21:00:48.350Z,52.08
2023-03-29T21:03:14.990Z,51.55
2023-03-29T21:05:41.863Z,51.25
2023-03-29T21:08:08.515Z,51.00
2023-03-29T21:10:37.129Z,50.99
2023-03-29T21:13:06.171Z,51.57
2023-03-29T21:15:41.930Z,51.29
2023-03-29T21:18:09.747Z,51.75
2023-03-29T21:20:37.634Z,51.91
2023-03-29T21:23:04.667Z,51.66
2023-03-29T21:25:31.541Z,51.67
2023-03-29T21:27:58.532Z,50.85
2023-03-29T21:30:25.084Z,52.28
2023-03-29T21:32:51.880Z,52.37
2023-03-29T21:35:18.668Z,51.43
2023-03-29T21:37:45.267Z,51.06
2023-03-29T21:40:12.972Z,50.33
2023-03-29T21:42:39.683Z,50.92
2023-03-29T21:45:08.440Z,50.64
2023-03-29T21:47:35.504Z,49.43
2023-03-29T21:50:04.259Z,50.24
2023-03-29T21:52:31.449Z,50.59
2023-03-29T21:54:58.156Z,50.35
2023-03-29T21:57:24.894Z,50.82
2023-03-29T21:59:51.586Z,50.42
2023-03-29T22:02:18.340Z,50.69
2023-03-29T22:04:45.233Z,50.12
2023-03-29T22:07:12.469Z,49.61
2023-03-29T22:09:42.520Z,49.64
2023-03-29T22:12:10.068Z,50.31
2023-03-29T22:14:37.198Z,51.31
2023-03-29T22:17:09.372Z,50.51
2023-03-29T22:19:39.845Z,50.71
2023-03-29T22:22:13.971Z,50.52
2023-03-29T22:24:41.907Z,51.27
2023-03-29T22:27:08.702Z,50.61
2023-03-29T22:29:37.471Z,50.34
2023-03-29T22:32:04.935Z,50.22
2023-03-29T22:34:32.102Z,50.93
2023-03-29T22:36:58.629Z,51.01
2023-03-29T22:39:25.289Z,50.85
2023-03-29T22:41:51.831Z,50.51
2023-03-29T22:44:18.418Z,51.06
2023-03-29T22:46:45.095Z,50.32
2023-03-29T22:49:11.937Z,50.33
2023-03-29T22:51:38.977Z,49.90
2023-03-29T22:54:05.963Z,49.70
2023-03-29T22:56:32.570Z,49.75
2023-03-29T22:58:59.288Z,49.53
2023-03-29T23:01:26.005Z,50.11
2023-03-29T23:03:52.809Z,49.76
2023-03-29T23:06:19.557Z,50.15
2023-03-29T23:08:46.161Z,50.92
2023-03-29T23:11:12.995Z,49.69
2023-03-29T23:13:40.109Z,49.40
2023-03-29T23:16:07.417Z,49.43
2023-03-29T23:18:37.953Z,48.69
2023-03-29T23:21:07.821Z,48.10
2023-03-29T23:23:36.996Z,48.37
2023-03-29T23:26:04.570Z,47.90
2023-03-29T23:28:34.882Z,48.43
2023-03-29T23:31:09.199Z,48.36
2023-03-29T23:33:40.390Z,47.33
2023-03-29T23:36:13.267Z,47.40
2023-03-29T23:38:40.699Z,46.90
2023-03-29T23:41:10.871Z,47.95
2023-03-29T23:43:43.901Z,47.26
2023-03-29T23:46:14.257Z,47.41
2023-03-29T23:48:48.877Z,47.42
2023-03-29T23:51:18.892Z,47.59
2023-03-29T23:53:46.525Z,47.09
2023-03-29T23:56:14.530Z,47.16
2023-03-29T23:58:41.188Z,46.57
